Time;durP1;ratioP1;P1;durP2;ratioP2;P2;SDS_P1;SDS_P2;PMS_P1;PMS_P2;Temp;Humidity;BMP_temperature;BMP_pressure;BME280_temperature;BME280_humidity;BME280_pressure;Samples;Min_cycle;Max_cycle;Signal;HPM_P1;HPM_P2
2021/01/07 02:55:03;;;;;;;18.93;17.40;;;2.80;99.90;;;;;;5091312;23;20495;-75
2021/01/07 02:57:29;;;;;;;19.63;18.13;;;2.90;99.90;;;;;;4953759;29;20530;-73
2021/01/07 02:59:55;;;;;;;19.20;17.80;;;2.80;99.90;;;;;;4953857;29;20449;-73
2021/01/07 03:02:22;;;;;;;18.53;17.27;;;2.80;99.90;;;;;;4953881;29;20460;-73
2021/01/07 03:04:48;;;;;;;18.27;17.07;;;2.70;99.90;;;;;;4953572;29;20449;-73
2021/01/07 03:07:14;;;;;;;18.80;17.53;;;2.70;99.90;;;;;;4953612;29;20487;-72
2021/01/07 03:09:42;;;;;;;19.50;17.90;;;2.60;99.90;;;;;;4953859;29;20827;-72
2021/01/07 03:12:13;;;;;;;16.00;15.00;;;2.60;99.90;;;;;;4953471;29;20485;-72
2021/01/07 03:14:40;;;;;;;18.77;17.30;;;2.70;99.90;;;;;;4954054;29;20448;-72
2021/01/07 03:17:06;;;;;;;16.63;15.40;;;2.60;99.90;;;;;;4953437;29;20488;-74
2021/01/07 03:19:32;;;;;;;17.40;16.00;;;2.80;99.90;;;;;;4953383;29;20453;-74
2021/01/07 03:21:59;;;;;;;17.57;16.27;;;2.80;99.90;;;;;;4953378;29;20467;-75
2021/01/07 03:24:25;;;;;;;18.10;16.70;;;2.80;99.90;;;;;;4952499;29;20460;-73
2021/01/07 03:26:51;;;;;;;17.10;15.87;;;2.90;99.90;;;;;;4952014;29;20605;-73
2021/01/07 03:29:18;;;;;;;16.27;15.17;;;2.90;99.90;;;;;;4952035;29;20456;-73
2021/01/07 03:31:45;;;;;;;15.57;14.50;;;2.90;99.90;;;;;;4949522;29;20480;-73
2021/01/07 03:34:11;;;;;;;16.73;15.53;;;2.90;99.90;;;;;;4952817;29;20509;-75
2021/01/07 03:36:37;;;;;;;15.73;14.63;;;3.00;99.90;;;;;;4953169;29;20460;-75
2021/01/07 03:39:03;;;;;;;15.07;14.17;;;2.90;99.90;;;;;;4953057;29;20449;-75
2021/01/07 03:41:30;;;;;;;14.47;13.50;;;2.90;99.90;;;;;;4953202;29;20817;-75
2021/01/07 03:43:56;;;;;;;14.70;13.70;;;2.90;99.90;;;;;;4953234;29;20456;-75
2021/01/07 03:46:23;;;;;;;16.00;14.90;;;2.80;99.90;;;;;;4953101;29;20568;-76
2021/01/07 03:48:49;;;;;;;13.67;12.97;;;2.80;99.90;;;;;;4953054;29;20545;-76
2021/01/07 03:51:15;;;;;;;14.00;12.90;;;2.80;99.90;;;;;;4953008;29;20460;-75
2021/01/07 03:53:41;;;;;;;14.87;13.97;;;2.70;99.90;;;;;;4950952;28;20488;-75
2021/01/07 03:56:07;;;;;;;14.33;13.40;;;2.70;99.90;;;;;;4953119;29;20460;-76
2021/01/07 03:58:34;;;;;;;14.77;13.57;;;2.60;99.90;;;;;;4952917;29;20455;-75
2021/01/07 04:01:01;;;;;;;16.20;15.30;;;2.60;99.90;;;;;;4952210;29;20461;-75
2021/01/07 04:03:28;;;;;;;14.40;13.60;;;2.60;99.90;;;;;;4952795;29;20809;-75
2021/01/07 04:05:54;;;;;;;14.60;13.70;;;2.70;99.90;;;;;;4953049;29;20547;-75
2021/01/07 04:08:20;;;;;;;14.40;13.50;;;2.70;99.90;;;;;;4952580;29;20560;-75
2021/01/07 04:10:46;;;;;;;14.37;13.57;;;2.70;99.90;;;;;;4952679;29;20452;-75
2021/01/07 04:13:12;;;;;;;14.10;13.30;;;2.70;99.90;;;;;;4952854;29;20464;-76
2021/01/07 04:15:38;;;;;;;13.90;13.20;;;2.60;99.90;;;;;;4953055;29;20867;-76
2021/01/07 04:18:05;;;;;;;14.70;13.80;;;2.50;99.90;;;;;;4952667;29;20457;-75
2021/01/07 04:20:32;;;;;;;13.97;13.17;;;2.50;99.90;;;;;;4952847;29;20786;-75
2021/01/07 04:22:58;;;;;;;13.47;12.77;;;2.60;99.90;;;;;;4952602;29;20481;-76
2021/01/07 04:25:24;;;;;;;15.40;14.40;;;2.60;99.90;;;;;;4952742;29;20832;-75
2021/01/07 04:27:50;;;;;;;14.97;14.17;;;2.60;99.90;;;;;;4952619;29;20453;-75
2021/01/07 04:30:17;;;;;;;14.90;14.10;;;2.60;99.90;;;;;;4952329;29;20959;-76
2021/01/07 04:32:44;;;;;;;14.73;13.93;;;2.60;99.90;;;;;;4952444;29;20461;-75
2021/01/07 04:35:10;;;;;;;14.60;13.60;;;2.70;99.90;;;;;;4952943;29;20459;-75
2021/01/07 04:37:37;;;;;;;14.60;13.70;;;2.70;99.90;;;;;;4952359;29;20452;-75
2021/01/07 04:40:05;;;;;;;15.43;14.60;;;2.80;99.90;;;;;;4952409;29;20459;-75
2021/01/07 04:42:31;;;;;;;14.83;13.93;;;2.80;99.90;;;;;;4952594;29;21054;-75
2021/01/07 04:44:58;;;;;;;15.40;14.50;;;2.80;99.90;;;;;;4952401;29;20958;-75
2021/01/07 04:47:24;;;;;;;14.80;13.97;;;2.70;99.90;;;;;;4952210;29;20492;-75
2021/01/07 04:49:52;;;;;;;14.80;13.90;;;2.80;99.90;;;;;;4952622;29;20953;-76
2021/01/07 04:52:18;;;;;;;15.43;14.43;;;2.70;99.90;;;;;;4952296;28;20558;-76
2021/01/07 04:54:45;;;;;;;15.40;14.40;;;2.60;99.90;;;;;;4952078;29;20484;-76
2021/01/07 04:57:11;;;;;;;15.63;14.63;;;2.60;99.90;;;;;;4952625;29;20453;-77
2021/01/07 04:59:37;;;;;;;16.13;14.93;;;2.70;99.90;;;;;;4952384;29;20980;-76
2021/01/07 05:02:03;;;;;;;16.20;14.90;;;2.70;99.90;;;;;;4952250;29;20886;-76
2021/01/07 05:04:30;;;;;;;14.83;13.93;;;2.70;99.90;;;;;;4952355;29;20460;-77
2021/01/07 05:06:59;;;;;;;14.33;13.50;;;2.70;99.90;;;;;;4952280;29;20875;-77
2021/01/07 05:10:00;;;;;;;16.03;14.90;;;2.70;99.90;;;;;;4952019;29;20552;-76
2021/01/07 05:12:26;;;;;;;18.83;17.40;;;2.70;99.90;;;;;;4895616;29;20865;-76
2021/01/07 05:14:53;;;;;;;16.20;15.20;;;2.70;99.90;;;;;;4943564;29;20455;-76
2021/01/07 05:17:19;;;;;;;16.20;15.20;;;2.70;99.90;;;;;;4956014;29;20489;-76
2021/01/07 05:19:45;;;;;;;16.20;15.20;;;2.70;99.90;;;;;;4955680;29;20448;-76
2021/01/07 05:22:11;;;;;;;16.63;15.63;;;2.70;99.90;;;;;;4956113;29;20845;-76
2021/01/07 05:24:38;;;;;;;15.50;14.67;;;2.70;99.90;;;;;;4955774;29;20455;-76
2021/01/07 05:27:06;;;;;;;15.80;14.60;;;2.80;99.90;;;;;;4955459;29;20538;-76
2021/01/07 05:29:33;;;;;;;16.53;15.30;;;2.70;99.90;;;;;;4955607;29;20497;-76
2021/01/07 05:32:00;;;;;;;16.33;14.93;;;2.60;99.90;;;;;;4955481;29;20474;-76
2021/01/07 05:34:26;;;;;;;15.90;14.80;;;2.60;99.90;;;;;;4955979;29;20450;-76
2021/01/07 05:36:57;;;;;;;17.60;16.30;;;2.70;99.90;;;;;;4955385;29;20464;-76
2021/01/07 05:39:23;;;;;;;17.07;15.97;;;2.70;99.90;;;;;;4955365;29;20531;-76
2021/01/07 05:41:52;;;;;;;18.10;16.70;;;2.70;99.90;;;;;;4955436;29;20463;-76
2021/01/07 05:44:22;;;;;;;15.13;14.23;;;2.60;99.90;;;;;;4955169;29;20954;-76
2021/01/07 05:46:49;;;;;;;16.50;15.20;;;2.80;99.90;;;;;;4955105;29;20522;-76
2021/01/07 05:49:19;;;;;;;16.33;15.17;;;2.70;99.90;;;;;;4955156;29;20468;-76
2021/01/07 05:51:47;;;;;;;16.13;15.10;;;2.70;99.90;;;;;;4954834;28;20457;-80
2021/01/07 05:54:14;;;;;;;19.33;18.10;;;2.70;99.90;;;;;;4955131;29;20883;-81
2021/01/07 05:56:42;;;;;;;15.77;14.73;;;2.70;99.90;;;;;;4955569;29;20548;-81
2021/01/07 05:59:09;;;;;;;16.67;15.40;;;2.60;99.90;;;;;;4954993;29;20507;-81
2021/01/07 06:01:36;;;;;;;18.80;17.40;;;2.80;99.90;;;;;;4955049;29;21046;-81
2021/01/07 06:04:07;;;;;;;16.07;15.07;;;2.80;99.90;;;;;;4954883;29;21044;-81
2021/01/07 06:06:34;;;;;;;17.33;15.93;;;2.90;99.90;;;;;;4955064;29;20484;-81
2021/01/07 06:09:03;;;;;;;17.40;16.30;;;3.00;99.90;;;;;;4954952;29;20464;-81
2021/01/07 06:11:30;;;;;;;17.17;15.70;;;2.90;99.90;;;;;;4954797;29;20461;-80
2021/01/07 06:13:58;;;;;;;18.37;17.03;;;2.70;99.90;;;;;;4955155;29;20454;-81
2021/01/07 06:16:25;;;;;;;18.30;16.80;;;2.70;99.90;;;;;;4955121;29;20871;-81
2021/01/07 06:18:54;;;;;;;18.17;16.67;;;2.60;99.90;;;;;;4954918;29;20816;-78
2021/01/07 06:21:24;;;;;;;19.17;17.77;;;2.70;99.90;;;;;;4954670;29;20461;-79
2021/01/07 06:23:50;;;;;;;18.73;17.43;;;2.80;99.90;;;;;;4954114;28;20483;-77
2021/01/07 06:26:24;;;;;;;18.53;17.03;;;2.90;99.90;;;;;;4954665;29;20912;-77
2021/01/07 06:28:53;;;;;;;18.27;16.90;;;2.90;99.90;;;;;;4954261;29;20969;-77
2021/01/07 06:31:19;;;;;;;17.27;15.97;;;2.80;99.90;;;;;;4954450;29;21022;-79
2021/01/07 06:33:49;;;;;;;18.07;16.73;;;2.80;99.90;;;;;;4954443;29;20505;-79
2021/01/07 06:36:16;;;;;;;19.03;17.43;;;2.80;99.90;;;;;;4954381;29;20989;-80
2021/01/07 06:38:50;;;;;;;18.70;17.10;;;2.70;99.90;;;;;;4954546;29;20803;-79
2021/01/07 06:41:19;;;;;;;19.47;17.53;;;2.70;99.90;;;;;;4954229;29;20448;-77
2021/01/07 06:43:48;;;;;;;19.53;18.03;;;2.70;99.90;;;;;;4954195;29;20461;-78
2021/01/07 06:46:37;;;;;;;18.70;17.30;;;2.80;99.90;;;;;;4954107;29;21068;-78
2021/01/07 06:49:18;;;;;;;18.97;17.57;;;2.70;99.90;;;;;;4954257;29;20460;-77
2021/01/07 06:51:48;;;;;;;18.43;16.83;;;2.70;99.90;;;;;;4954043;28;20461;-77
2021/01/07 06:54:16;;;;;;;20.37;18.33;;;2.60;99.90;;;;;;4953828;29;20543;-79
2021/01/07 06:56:43;;;;;;;18.60;17.10;;;2.60;99.90;;;;;;4954196;29;20464;-79
2021/01/07 06:59:12;;;;;;;19.33;17.73;;;2.50;99.90;;;;;;4954337;29;20455;-78
2021/01/07 07:01:46;;;;;;;22.20;20.00;;;2.50;99.90;;;;;;4954077;29;20869;-77
2021/01/07 07:04:24;;;;;;;18.30;16.90;;;2.50;99.90;;;;;;4954070;29;20523;-75
2021/01/07 07:06:57;;;;;;;20.73;18.93;;;2.60;99.90;;;;;;4953718;29;20494;-76
2021/01/07 07:09:25;;;;;;;22.40;19.97;;;2.60;99.90;;;;;;4953925;29;20485;-76
2021/01/07 07:11:52;;;;;;;20.30;18.50;;;2.60;99.90;;;;;;4953604;29;20548;-75
2021/01/07 07:14:20;;;;;;;19.93;17.97;;;2.60;99.90;;;;;;4953600;29;20539;-76
2021/01/07 07:16:47;;;;;;;19.10;17.23;;;2.50;99.90;;;;;;4953819;29;20877;-76
2021/01/07 07:19:23;;;;;;;20.37;18.47;;;2.60;99.90;;;;;;4953608;29;20979;-75
2021/01/07 07:21:57;;;;;;;22.40;20.00;;;2.70;99.90;;;;;;4953322;29;20609;-76
2021/01/07 07:24:31;;;;;;;23.47;21.03;;;2.80;99.90;;;;;;4953615;29;20491;-76
2021/01/07 07:27:03;;;;;;;19.33;17.33;;;2.70;99.90;;;;;;4953445;29;20608;-76
2021/01/07 07:29:33;;;;;;;19.57;17.80;;;2.70;99.90;;;;;;4953620;29;20463;-75
2021/01/07 07:32:00;;;;;;;19.60;17.70;;;2.80;99.90;;;;;;4953175;29;20492;-76
2021/01/07 07:34:31;;;;;;;20.83;18.70;;;2.70;99.90;;;;;;4953596;28;20464;-76
2021/01/07 07:36:59;;;;;;;22.90;20.57;;;2.80;99.90;;;;;;4953365;29;20539;-76
2021/01/07 07:39:27;;;;;;;22.83;20.50;;;2.90;99.90;;;;;;4953351;29;20465;-76
2021/01/07 07:42:08;;;;;;;21.33;19.13;;;3.10;99.90;;;;;;4953185;29;20847;-76
2021/01/07 07:44:34;;;;;;;23.27;21.07;;;3.00;99.90;;;;;;4953369;29;20922;-75
2021/01/07 07:47:01;;;;;;;22.37;20.43;;;2.90;99.90;;;;;;4953077;29;20493;-75
2021/01/07 07:49:28;;;;;;;22.30;20.07;;;2.80;99.90;;;;;;4953032;29;20457;-76
2021/01/07 07:51:54;;;;;;;22.50;20.40;;;2.80;99.90;;;;;;4952842;28;20457;-76
2021/01/07 07:54:21;;;;;;;22.90;20.60;;;2.90;99.90;;;;;;4952916;29;20500;-77
2021/01/07 07:56:47;;;;;;;21.53;19.53;;;2.90;99.90;;;;;;4952958;29;20724;-78
2021/01/07 07:59:13;;;;;;;20.30;18.60;;;2.80;99.90;;;;;;4953113;29;20822;-76
2021/01/07 08:01:43;;;;;;;22.07;20.07;;;2.80;99.90;;;;;;4952885;29;20452;-77
2021/01/07 08:04:14;;;;;;;22.03;20.17;;;2.90;99.90;;;;;;4952852;29;20466;-78
2021/01/07 08:06:41;;;;;;;21.37;19.47;;;2.90;99.90;;;;;;4952831;29;20498;-77
2021/01/07 08:09:08;;;;;;;20.97;18.17;;;2.90;99.90;;;;;;4952666;29;20468;-78
2021/01/07 08:11:42;;;;;;;22.67;19.83;;;3.00;99.90;;;;;;4952342;29;20473;-76
2021/01/07 08:14:10;;;;;;;20.83;18.83;;;3.00;99.90;;;;;;4952969;29;20873;-77
2021/01/07 08:16:37;;;;;;;20.03;18.23;;;3.00;99.90;;;;;;4952506;29;20477;-76
2021/01/07 08:19:23;;;;;;;20.87;18.80;;;3.10;99.90;;;;;;4952583;29;20458;-76
2021/01/07 08:21:52;;;;;;;19.50;17.70;;;3.10;99.90;;;;;;4952531;29;20456;-78
2021/01/07 08:24:21;;;;;;;20.67;18.83;;;3.00;99.90;;;;;;4952319;29;20939;-73
2021/01/07 08:27:00;;;;;;;21.50;19.50;;;3.00;99.90;;;;;;4951573;29;21012;-77
2021/01/07 08:29:28;;;;;;;20.30;18.10;;;3.10;99.90;;;;;;4952835;29;20267;-75
2021/01/07 08:31:59;;;;;;;19.33;17.57;;;3.10;99.90;;;;;;4952967;29;20448;-78
2021/01/07 08:34:27;;;;;;;18.63;16.80;;;3.10;99.90;;;;;;4952695;29;20473;-76
2021/01/07 08:36:53;;;;;;;19.70;18.17;;;3.10;99.90;;;;;;4952129;29;20489;-79
2021/01/07 08:39:19;;;;;;;19.17;17.50;;;3.00;99.90;;;;;;4952135;29;20456;-73
2021/01/07 08:41:46;;;;;;;19.50;17.70;;;3.00;99.90;;;;;;4950406;29;20476;-75
2021/01/07 08:44:13;;;;;;;19.00;17.50;;;3.00;99.90;;;;;;4952065;29;20464;-84
2021/01/07 08:46:40;;;;;;;20.30;18.40;;;3.10;99.90;;;;;;4953192;28;20480;-78
2021/01/07 08:49:08;;;;;;;19.23;17.53;;;3.20;99.90;;;;;;4955916;29;20480;-78
2021/01/07 08:51:42;;;;;;;19.17;17.57;;;3.20;99.90;;;;;;4955293;29;20461;-78
2021/01/07 08:54:13;;;;;;;18.77;17.07;;;3.20;99.90;;;;;;4955368;29;20629;-79
2021/01/07 08:56:41;;;;;;;21.03;18.93;;;3.40;99.90;;;;;;4955690;29;20453;-71
2021/01/07 08:59:30;;;;;;;20.07;18.20;;;3.40;99.90;;;;;;4955394;29;20800;-80
2021/01/07 09:01:57;;;;;;;20.90;18.70;;;3.60;99.90;;;;;;4955549;29;20463;-80
2021/01/07 09:04:28;;;;;;;19.53;17.90;;;3.60;99.90;;;;;;4955721;29;20458;-80
2021/01/07 09:06:56;;;;;;;20.17;18.17;;;3.80;99.90;;;;;;4956304;29;20505;-80
2021/01/07 09:09:23;;;;;;;18.30;16.80;;;4.00;99.90;;;;;;4955607;29;20494;-79
2021/01/07 09:11:49;;;;;;;18.83;17.20;;;4.00;99.90;;;;;;4955014;29;20461;-75
2021/01/07 09:14:15;;;;;;;20.03;18.10;;;4.10;99.90;;;;;;4955124;29;20457;-83
2021/01/07 09:16:58;;;;;;;19.27;17.47;;;4.30;99.90;;;;;;4955654;29;20464;-84
2021/01/07 09:19:24;;;;;;;20.00;18.17;;;4.60;99.90;;;;;;4956424;29;20484;-86
2021/01/07 09:21:59;;;;;;;19.17;17.60;;;4.70;99.90;;;;;;4956010;29;20464;-73
2021/01/07 09:24:31;;;;;;;18.37;16.77;;;5.00;99.90;;;;;;4955317;29;20458;-79
2021/01/07 09:27:04;;;;;;;14.90;13.80;;;5.10;99.90;;;;;;4955092;29;20484;-80
2021/01/07 09:29:30;;;;;;;17.63;16.00;;;5.10;99.90;;;;;;4955016;29;20458;-80
2021/01/07 09:31:56;;;;;;;15.47;14.33;;;5.20;99.90;;;;;;4955040;29;20950;-81
2021/01/07 09:34:23;;;;;;;16.20;15.07;;;5.30;99.90;;;;;;4955205;29;20865;-83
2021/01/07 09:36:49;;;;;;;15.80;14.70;;;5.20;99.90;;;;;;4953222;29;20452;-83
2021/01/07 09:39:15;;;;;;;16.87;15.70;;;5.30;99.90;;;;;;4955244;29;20468;-83
2021/01/07 09:41:42;;;;;;;16.90;15.67;;;5.40;99.90;;;;;;4955583;29;20466;-83
2021/01/07 09:44:08;;;;;;;16.70;15.30;;;5.70;99.90;;;;;;4955325;29;20456;-84
2021/01/07 09:46:34;;;;;;;17.50;16.20;;;5.70;99.90;;;;;;4954985;28;20900;-83
2021/01/07 09:49:00;;;;;;;16.13;14.87;;;5.50;99.90;;;;;;4953132;29;20457;-83
2021/01/07 09:51:27;;;;;;;15.87;14.77;;;5.60;99.90;;;;;;4954689;29;20452;-84
2021/01/07 09:53:53;;;;;;;17.47;16.17;;;5.40;99.90;;;;;;4954450;29;20498;-85
2021/01/07 09:56:19;;;;;;;16.20;14.97;;;5.50;99.90;;;;;;4955063;29;20475;-85
2021/01/07 09:58:47;;;;;;;16.03;14.93;;;5.90;99.90;;;;;;4953642;28;20520;-86
2021/01/07 10:01:17;;;;;;;16.47;15.30;;;6.10;99.90;;;;;;4955147;29;20503;-86
2021/01/07 10:03:43;;;;;;;16.53;15.20;;;6.00;99.90;;;;;;4955035;29;20456;-85
2021/01/07 10:06:09;;;;;;;17.13;15.93;;;5.80;99.90;;;;;;4955139;29;20487;-85
2021/01/07 10:29:19;;;;;;;15.40;14.30;;;6.10;99.90;;;;;;5825758;23;20567;-86
2021/01/07 10:31:45;;;;;;;16.77;15.47;;;6.10;99.90;;;;;;4964322;28;20448;-84
2021/01/07 10:34:12;;;;;;;16.27;15.20;;;6.20;99.90;;;;;;4953821;29;20812;-84
2021/01/07 10:36:41;;;;;;;16.30;15.10;;;6.40;99.90;;;;;;4953645;29;21008;-83
2021/01/07 10:39:07;;;;;;;17.47;16.17;;;6.50;99.90;;;;;;4953443;28;20456;-83
2021/01/07 10:41:36;;;;;;;16.47;15.17;;;6.40;99.90;;;;;;4953422;29;20868;-83
2021/01/07 10:44:06;;;;;;;17.30;16.00;;;6.50;99.90;;;;;;4953469;29;20548;-83
2021/01/07 10:46:36;;;;;;;16.73;15.53;;;6.70;99.90;;;;;;4953375;29;20551;-83
2021/01/07 10:49:03;;;;;;;17.23;15.93;;;6.60;99.90;;;;;;4953419;29;20865;-83
2021/01/07 10:51:44;;;;;;;18.67;17.07;;;6.60;99.90;;;;;;4953177;29;20461;-82
2021/01/07 10:54:23;;;;;;;17.20;15.90;;;6.60;99.90;;;;;;4934143;29;20461;-84
2021/01/07 10:57:03;;;;;;;16.70;15.60;;;6.60;99.90;;;;;;4934803;29;20445;-85
2021/01/07 10:59:42;;;;;;;17.07;15.83;;;6.70;99.90;;;;;;4934691;29;20483;-83
2021/01/07 11:02:30;;;;;;;15.53;14.30;;;6.60;99.90;;;;;;4934937;29;20453;-83
2021/01/07 11:05:13;;;;;;;16.90;15.63;;;6.50;99.90;;;;;;4934571;29;20515;-84
2021/01/07 11:07:46;;;;;;;14.80;13.90;;;6.70;99.90;;;;;;4934376;29;20493;-84
2021/01/07 11:10:14;;;;;;;15.50;14.47;;;6.80;99.90;;;;;;4931092;29;20454;-86
2021/01/07 11:12:46;;;;;;;15.20;14.20;;;7.00;99.90;;;;;;4933183;29;20437;-85
2021/01/07 11:15:19;;;;;;;15.43;14.47;;;7.20;99.90;;;;;;4934103;29;20469;-86
2021/01/07 11:17:52;;;;;;;15.53;14.53;;;7.20;99.90;;;;;;4934376;29;20458;-86
2021/01/07 11:20:23;;;;;;;15.07;13.97;;;7.00;99.90;;;;;;4934804;29;20465;-84
2021/01/07 11:22:51;;;;;;;14.93;13.93;;;6.90;99.90;;;;;;4934379;29;20453;-86
2021/01/07 11:25:17;;;;;;;15.43;14.07;;;6.90;99.90;;;;;;4934324;29;20556;-85
2021/01/07 11:27:47;;;;;;;14.47;13.57;;;6.90;99.90;;;;;;4934385;29;20496;-85
2021/01/07 11:30:14;;;;;;;13.50;12.70;;;6.80;99.90;;;;;;4934237;29;20853;-84
2021/01/07 11:32:41;;;;;;;12.27;11.63;;;6.70;99.90;;;;;;4934221;29;20478;-84
2021/01/07 11:35:10;;;;;;;13.50;12.60;;;6.60;99.90;;;;;;4934494;29;20472;-86
2021/01/07 11:37:53;;;;;;;12.87;12.17;;;6.50;99.90;;;;;;4934273;29;20462;-84
2021/01/07 11:40:25;;;;;;;13.77;12.87;;;6.60;99.90;;;;;;4934382;29;20464;-87
2021/01/07 11:43:28;;;;;;;13.10;12.40;;;6.60;99.90;;;;;;4935257;29;20464;-87
2021/01/07 11:45:58;;;;;;;14.70;13.60;;;6.70;99.90;;;;;;4937211;29;20866;-88
2021/01/07 11:48:27;;;;;;;12.20;11.60;;;6.70;99.90;;;;;;4935323;29;20457;-87
2021/01/07 11:51:02;;;;;;;14.00;13.20;;;6.60;99.90;;;;;;4935785;29;20532;-89
2021/01/07 11:53:29;;;;;;;13.30;12.40;;;6.70;99.90;;;;;;4935467;29;20881;-84
2021/01/07 11:55:57;;;;;;;14.60;13.70;;;6.90;99.90;;;;;;4938068;29;20503;-88
2021/01/07 11:58:29;;;;;;;13.90;13.17;;;6.90;99.90;;;;;;4946814;29;20464;-86
2021/01/07 12:00:56;;;;;;;14.33;13.53;;;7.10;99.90;;;;;;4948007;29;20461;-87
2021/01/07 12:03:28;;;;;;;15.30;14.40;;;7.10;99.90;;;;;;4936528;29;20475;-86
2021/01/07 12:05:59;;;;;;;14.60;13.70;;;7.00;99.90;;;;;;4935357;29;20544;-87
2021/01/07 12:08:38;;;;;;;15.23;14.33;;;7.00;99.90;;;;;;4935630;29;21011;-88
2021/01/07 12:11:06;;;;;;;15.40;14.50;;;7.10;99.90;;;;;;4938125;29;20457;-87
2021/01/07 12:13:45;;;;;;;16.20;15.20;;;7.10;99.90;;;;;;4946600;29;20473;-86
2021/01/07 12:40:44;;;;;;;15.10;14.20;;;6.60;99.90;;;;;;4908818;29;20831;-87
2021/01/07 12:43:16;;;;;;;14.30;13.30;;;6.40;99.90;;;;;;4913130;29;20469;-87
2021/01/07 12:49:14;;;;;;;17.17;15.77;;;6.10;99.90;;;;;;4907381;29;20538;-87
2021/01/07 12:51:41;;;;;;;16.17;15.03;;;6.10;99.90;;;;;;4854498;29;20869;-85
2021/01/07 12:54:08;;;;;;;16.07;14.90;;;6.10;99.90;;;;;;4914788;29;20960;-87
2021/01/07 12:57:39;;;;;;;;;;;;;;;;;;;;;
2021/01/07 13:00:13;;;;;;;17.53;16.13;;;6.30;99.90;;;;;;4889433;29;20461;-86
2021/01/07 13:02:48;;;;;;;17.73;16.43;;;6.40;99.90;;;;;;4914890;29;20470;-85
2021/01/07 13:05:21;;;;;;;17.10;15.80;;;6.00;99.90;;;;;;4914326;29;20446;-85
2021/01/07 13:07:48;;;;;;;17.07;15.57;;;6.10;99.90;;;;;;4914261;29;20457;-84
2021/01/07 13:10:16;;;;;;;16.67;15.53;;;6.10;99.90;;;;;;4914254;29;20467;-84
2021/01/07 13:12:45;;;;;;;16.47;15.27;;;6.10;99.90;;;;;;4912397;29;20457;-85
2021/01/07 13:15:13;;;;;;;19.20;17.87;;;6.10;99.90;;;;;;4905340;29;20486;-83
2021/01/07 13:17:42;;;;;;;17.70;16.37;;;6.10;99.90;;;;;;4901894;29;20497;-85
2021/01/07 13:20:09;;;;;;;15.27;14.10;;;6.20;99.90;;;;;;4914683;29;20469;-85
2021/01/07 13:22:38;;;;;;;17.00;15.60;;;6.20;99.90;;;;;;4902468;29;20458;-85
2021/01/07 13:25:06;;;;;;;16.73;15.53;;;6.20;99.90;;;;;;4895347;29;20467;-84
2021/01/07 13:27:33;;;;;;;16.47;15.27;;;6.30;99.90;;;;;;4904555;29;20501;-85
2021/01/07 13:30:00;;;;;;;15.87;14.70;;;6.10;99.90;;;;;;4911455;29;21007;-84
2021/01/07 13:32:27;;;;;;;15.80;14.60;;;6.10;99.90;;;;;;4925047;29;20488;-83
2021/01/07 13:35:02;;;;;;;17.33;16.10;;;6.10;99.90;;;;;;4931143;29;20490;-83
2021/01/07 13:37:29;;;;;;;16.10;14.90;;;6.00;99.90;;;;;;4917447;29;20544;-82
2021/01/07 13:39:59;;;;;;;16.27;15.00;;;5.80;99.90;;;;;;4932424;29;20461;-86
2021/01/07 13:42:25;;;;;;;15.77;14.57;;;5.70;99.90;;;;;;4937107;29;20486;-83
2021/01/07 13:44:57;;;;;;;16.60;15.30;;;5.70;99.90;;;;;;4936346;29;20457;-84
2021/01/07 13:47:25;;;;;;;17.60;16.20;;;5.60;99.90;;;;;;4926973;29;20904;-83
2021/01/07 13:49:56;;;;;;;18.57;16.97;;;5.50;99.90;;;;;;4932968;29;20824;-83
2021/01/07 13:52:23;;;;;;;18.60;17.10;;;5.40;99.90;;;;;;4917257;29;20481;-81
2021/01/07 13:54:51;;;;;;;17.30;15.90;;;5.40;99.90;;;;;;4921428;29;20472;-83
2021/01/07 13:57:18;;;;;;;17.47;16.23;;;5.40;99.90;;;;;;4935924;29;20546;-83
2021/01/07 13:59:44;;;;;;;16.83;15.53;;;5.60;99.90;;;;;;4936123;29;20465;-83
2021/01/07 14:02:10;;;;;;;16.83;15.53;;;5.40;99.90;;;;;;4936198;29;20458;-83
2021/01/07 14:04:37;;;;;;;16.67;15.33;;;5.40;99.90;;;;;;4921298;29;20454;-83
2021/01/07 14:07:11;;;;;;;17.50;16.30;;;5.50;99.90;;;;;;4916868;29;20461;-84
2021/01/07 14:09:41;;;;;;;17.90;16.40;;;5.60;99.90;;;;;;4917200;29;20479;-83
2021/01/07 14:12:21;;;;;;;19.37;18.00;;;5.80;99.90;;;;;;4917018;29;20959;-84
2021/01/07 14:14:48;;;;;;;18.70;17.10;;;5.80;99.90;;;;;;4916895;29;20611;-84
2021/01/07 14:17:14;;;;;;;17.90;16.60;;;5.30;99.90;;;;;;4916692;29;20494;-83
2021/01/07 14:19:40;;;;;;;18.63;17.03;;;5.30;99.90;;;;;;4916874;29;20450;-82
2021/01/07 14:22:07;;;;;;;18.80;17.40;;;5.40;99.90;;;;;;4934334;29;20460;-84
2021/01/07 14:24:35;;;;;;;18.53;17.07;;;5.00;99.90;;;;;;4935132;29;20458;-83
2021/01/07 14:27:08;;;;;;;17.90;16.33;;;5.00;99.90;;;;;;4935298;29;20467;-83
2021/01/07 14:29:36;;;;;;;19.30;17.80;;;4.90;99.90;;;;;;4935231;29;20469;-83
2021/01/07 14:32:04;;;;;;;17.33;15.93;;;4.80;99.90;;;;;;4935236;29;20890;-83
2021/01/07 14:34:31;;;;;;;17.53;16.33;;;4.80;99.90;;;;;;4935200;29;20457;-81
2021/01/07 14:37:00;;;;;;;18.07;16.50;;;4.70;99.90;;;;;;4935384;29;20495;-83
2021/01/07 14:39:27;;;;;;;19.93;18.27;;;4.70;99.90;;;;;;4935450;29;20462;-84
2021/01/07 14:41:54;;;;;;;18.40;17.10;;;4.60;99.90;;;;;;4935533;29;20493;-83
2021/01/07 14:44:21;;;;;;;19.07;17.67;;;4.50;99.90;;;;;;4934260;29;20501;-84
2021/01/07 14:46:49;;;;;;;19.10;17.57;;;4.60;99.90;;;;;;4927411;29;20459;-83
2021/01/07 14:49:20;;;;;;;19.90;18.20;;;4.60;99.90;;;;;;4915653;29;20466;-79
2021/01/07 14:51:49;;;;;;;17.73;16.47;;;4.50;99.90;;;;;;4915210;29;20454;-83
2021/01/07 14:54:19;;;;;;;20.00;18.40;;;4.60;99.90;;;;;;4915760;29;20518;-85
2021/01/07 14:56:51;;;;;;;18.70;17.10;;;4.70;99.90;;;;;;4915326;29;20496;-86
2021/01/07 14:59:38;;;;;;;18.13;16.83;;;4.80;99.90;;;;;;4915702;29;20532;-84
2021/01/07 15:02:26;;;;;;;19.13;17.63;;;4.70;99.90;;;;;;4915440;29;20974;-83
2021/01/07 15:05:04;;;;;;;18.93;17.33;;;4.50;99.90;;;;;;4915435;29;20517;-84
2021/01/07 15:07:37;;;;;;;19.37;18.00;;;4.30;99.90;;;;;;4915144;29;20495;-83
2021/01/07 15:10:07;;;;;;;19.00;17.50;;;4.40;99.90;;;;;;4915539;29;20448;-82
2021/01/07 15:12:36;;;;;;;18.53;17.10;;;4.40;99.90;;;;;;4915237;29;21017;-83
2021/01/07 15:15:12;;;;;;;17.43;15.90;;;4.40;99.90;;;;;;4915188;29;20455;-82
2021/01/07 15:17:53;;;;;;;17.80;16.50;;;4.30;99.90;;;;;;4915003;29;20554;-82
2021/01/07 15:20:31;;;;;;;17.97;16.50;;;4.30;99.90;;;;;;4917092;29;20462;-83
2021/01/07 15:23:14;;;;;;;19.07;17.40;;;4.30;99.90;;;;;;4934292;29;20459;-82
2021/01/07 15:25:56;;;;;;;18.70;17.17;;;4.00;99.90;;;;;;4933997;29;20461;-82
2021/01/07 15:28:31;;;;;;;18.20;16.70;;;3.80;99.90;;;;;;4933919;29;20452;-81
2021/01/07 15:31:06;;;;;;;17.93;16.53;;;3.70;99.90;;;;;;4934140;29;21036;-83
2021/01/07 15:33:37;;;;;;;19.10;17.73;;;3.70;99.90;;;;;;4933633;29;20808;-83
2021/01/07 15:36:05;;;;;;;22.30;20.60;;;3.70;99.90;;;;;;4933841;29;20677;-83
2021/01/07 15:39:05;;;;;;;16.93;15.63;;;3.60;99.90;;;;;;4933350;29;20754;-84
2021/01/07 15:42:21;;;;;;;18.43;17.03;;;3.70;99.90;;;;;;4933116;29;20449;-83
2021/01/07 15:45:25;;;;;;;19.10;17.70;;;3.50;99.90;;;;;;4933541;29;20611;-83
2021/01/07 15:48:26;;;;;;;18.03;16.40;;;3.60;99.90;;;;;;4933458;29;20444;-82
2021/01/07 15:51:00;;;;;;;17.10;15.63;;;3.60;99.90;;;;;;4933732;29;20445;-84
2021/01/07 15:54:14;;;;;;;18.60;17.13;;;3.50;99.90;;;;;;4932768;29;20469;-84
2021/01/07 15:57:17;;;;;;;17.77;16.23;;;3.50;99.90;;;;;;4932409;29;20489;-84
2021/01/07 15:59:54;;;;;;;18.43;16.60;;;3.60;99.90;;;;;;4933242;29;20453;-83
2021/01/07 16:02:21;;;;;;;18.77;17.00;;;3.60;99.90;;;;;;4934039;29;20456;-82
2021/01/07 16:04:58;;;;;;;18.63;17.07;;;3.50;99.90;;;;;;4933848;29;20467;-83
2021/01/07 16:08:14;;;;;;;18.20;16.60;;;3.60;99.90;;;;;;4933957;29;20473;-82
2021/01/07 16:10:40;;;;;;;17.90;16.40;;;3.60;99.90;;;;;;4932725;29;20470;-82
2021/01/07 16:13:06;;;;;;;19.73;17.93;;;3.40;99.90;;;;;;4933363;29;20473;-82
2021/01/07 16:15:35;;;;;;;18.70;16.87;;;3.50;99.90;;;;;;4932825;29;20461;-82
2021/01/07 16:18:03;;;;;;;19.43;17.80;;;3.50;99.90;;;;;;4933040;29;20489;-83
2021/01/07 16:20:31;;;;;;;19.17;17.40;;;3.60;99.90;;;;;;4932850;29;20462;-83
2021/01/07 16:23:05;;;;;;;17.70;16.20;;;3.70;99.90;;;;;;4933162;29;20466;-83
2021/01/07 16:25:42;;;;;;;19.87;17.80;;;3.60;99.90;;;;;;4932948;29;20616;-83
2021/01/07 16:28:11;;;;;;;19.37;17.67;;;3.60;99.90;;;;;;4933286;29;20447;-83
2021/01/07 16:30:39;;;;;;;18.93;17.50;;;3.60;99.90;;;;;;4933177;29;20865;-83
2021/01/07 16:33:06;;;;;;;19.63;17.87;;;3.60;99.90;;;;;;4933248;29;20562;-83
2021/01/07 16:35:33;;;;;;;18.13;16.80;;;3.40;99.90;;;;;;4933347;29;20453;-84
2021/01/07 16:38:03;;;;;;;18.17;16.57;;;3.50;99.90;;;;;;4933297;29;20523;-84